sensor_id;sensor_type;location;lat;lon;timestamp;temperature;humidity
46976;DHT22;32724;51.094;6.996;2023-02-15T00:01:34;2.10;99.90
46976;DHT22;32724;51.094;6.996;2023-02-15T00:04:00;2.00;99.90
46976;DHT22;32724;51.094;6.996;2023-02-15T00:06:26;2.00;99.90
46976;DHT22;32724;51.094;6.996;2023-02-15T00:08:51;2.00;99.90
46976;DHT22;32724;51.094;6.996;2023-02-15T00:11:17;2.00;99.90
46976;DHT22;32724;51.094;6.996;2023-02-15T00:14:04;2.00;99.90
46976;DHT22;32724;51.094;6.996;2023-02-15T00:16:29;2.00;99.90
46976;DHT22;32724;51.094;6.996;2023-02-15T00:18:55;2.00;99.90
46976;DHT22;32724;51.094;6.996;2023-02-15T00:21:20;2.00;99.90
46976;DHT22;32724;51.094;6.996;2023-02-15T00:23:46;2.00;99.90
46976;DHT22;32724;51.094;6.996;2023-02-15T00:26:11;2.00;99.90
46976;DHT22;32724;51.094;6.996;2023-02-15T00:28:37;2.10;99.90
46976;DHT22;32724;51.094;6.996;2023-02-15T00:31:10;2.10;99.90
46976;DHT22;32724;51.094;6.996;2023-02-15T00:33:36;2.10;99.90
46976;DHT22;32724;51.094;6.996;2023-02-15T00:36:02;2.20;99.90
46976;DHT22;32724;51.094;6.996;2023-02-15T00:38:28;2.10;99.90
46976;DHT22;32724;51.094;6.996;2023-02-15T00:40:54;2.00;99.90
46976;DHT22;32724;51.094;6.996;2023-02-15T00:43:20;2.00;99.90
46976;DHT22;32724;51.094;6.996;2023-02-15T00:45:46;1.90;99.90
46976;DHT22;32724;51.094;6.996;2023-02-15T00:48:11;1.80;99.90
46976;DHT22;32724;51.094;6.996;2023-02-15T00:50:37;1.70;99.90
46976;DHT22;32724;51.094;6.996;2023-02-15T00:53:02;1.60;99.90
46976;DHT22;32724;51.094;6.996;2023-02-15T00:55:28;1.60;99.90
46976;DHT22;32724;51.094;6.996;2023-02-15T00:57:53;1.60;99.90
46976;DHT22;32724;51.094;6.996;2023-02-15T01:00:18;1.50;99.90
46976;DHT22;32724;51.094;6.996;2023-02-15T01:02:44;1.50;99.90
46976;DHT22;32724;51.094;6.996;2023-02-15T01:05:09;1.50;99.90
46976;DHT22;32724;51.094;6.996;2023-02-15T01:07:35;1.50;99.90
46976;DHT22;32724;51.094;6.996;2023-02-15T01:10:00;1.50;99.90
46976;DHT22;32724;51.094;6.996;2023-02-15T01:12:26;1.40;99.90
46976;DHT22;32724;51.094;6.996;2023-02-15T01:14:51;1.40;99.90
46976;DHT22;32724;51.094;6.996;2023-02-15T01:17:17;1.30;99.90
46976;DHT22;32724;51.094;6.996;2023-02-15T01:19:42;1.20;99.90
46976;DHT22;32724;51.094;6.996;2023-02-15T01:22:08;1.30;99.90
46976;DHT22;32724;51.094;6.996;2023-02-15T01:24:33;1.20;99.90
46976;DHT22;32724;51.094;6.996;2023-02-15T01:26:59;1.30;99.90
46976;DHT22;32724;51.094;6.996;2023-02-15T01:29:24;1.40;99.90
46976;DHT22;32724;51.094;6.996;2023-02-15T01:31:50;1.50;99.90
46976;DHT22;32724;51.094;6.996;2023-02-15T01:34:15;1.40;99.90
46976;DHT22;32724;51.094;6.996;2023-02-15T01:36:41;1.40;99.90
46976;DHT22;32724;51.094;6.996;2023-02-15T01:39:06;1.40;99.90
46976;DHT22;32724;51.094;6.996;2023-02-15T01:41:33;1.40;99.90
46976;DHT22;32724;51.094;6.996;2023-02-15T01:43:59;1.40;99.90
46976;DHT22;32724;51.094;6.996;2023-02-15T01:46:35;1.40;99.90
46976;DHT22;32724;51.094;6.996;2023-02-15T01:49:05;1.30;99.90
46976;DHT22;32724;51.094;6.996;2023-02-15T01:51:35;1.10;99.90
46976;DHT22;32724;51.094;6.996;2023-02-15T01:54:03;0.90;99.90
46976;DHT22;32724;51.094;6.996;2023-02-15T01:56:30;0.80;99.90
46976;DHT22;32724;51.094;6.996;2023-02-15T01:58:58;0.70;99.90
46976;DHT22;32724;51.094;6.996;2023-02-15T02:01:25;0.70;99.90
46976;DHT22;32724;51.094;6.996;2023-02-15T02:03:59;0.70;99.90
46976;DHT22;32724;51.094;6.996;2023-02-15T02:06:27;0.70;99.90
46976;DHT22;32724;51.094;6.996;2023-02-15T02:08:53;0.70;99.90
46976;DHT22;32724;51.094;6.996;2023-02-15T02:11:19;0.70;99.90
46976;DHT22;32724;51.094;6.996;2023-02-15T02:13:44;0.70;99.90
46976;DHT22;32724;51.094;6.996;2023-02-15T02:18:48;0.60;99.90
46976;DHT22;32724;51.094;6.996;2023-02-15T02:31:28;1.10;99.90
46976;DHT22;32724;51.094;6.996;2023-02-15T02:34:08;1.10;99.90
46976;DHT22;32724;51.094;6.996;2023-02-15T02:36:52;1.10;99.90
46976;DHT22;32724;51.094;6.996;2023-02-15T02:41:57;1.10;99.90
46976;DHT22;32724;51.094;6.996;2023-02-15T02:44:25;1.10;99.90
46976;DHT22;32724;51.094;6.996;2023-02-15T02:49:27;1.10;99.90
46976;DHT22;32724;51.094;6.996;2023-02-15T02:51:59;1.10;99.90
46976;DHT22;32724;51.094;6.996;2023-02-15T02:54:25;1.10;99.90
46976;DHT22;32724;51.094;6.996;2023-02-15T02:56:50;1.10;99.90
46976;DHT22;32724;51.094;6.996;2023-02-15T02:59:23;1.10;99.90
46976;DHT22;32724;51.094;6.996;2023-02-15T03:04:19;0.90;99.90
46976;DHT22;32724;51.094;6.996;2023-02-15T03:06:54;0.80;99.90
46976;DHT22;32724;51.094;6.996;2023-02-15T03:09:26;0.70;99.90
46976;DHT22;32724;51.094;6.996;2023-02-15T03:12:00;0.60;99.90
46976;DHT22;32724;51.094;6.996;2023-02-15T03:14:26;0.50;99.90
46976;DHT22;32724;51.094;6.996;2023-02-15T03:16:52;0.40;99.90
46976;DHT22;32724;51.094;6.996;2023-02-15T03:19:26;0.40;99.90
46976;DHT22;32724;51.094;6.996;2023-02-15T03:21:54;0.40;99.90
46976;DHT22;32724;51.094;6.996;2023-02-15T03:24:33;0.30;99.90
46976;DHT22;32724;51.094;6.996;2023-02-15T03:27:00;0.30;99.90
46976;DHT22;32724;51.094;6.996;2023-02-15T03:29:27;0.20;99.90
46976;DHT22;32724;51.094;6.996;2023-02-15T03:31:54;0.20;99.90
46976;DHT22;32724;51.094;6.996;2023-02-15T03:34:22;0.20;99.90
46976;DHT22;32724;51.094;6.996;2023-02-15T03:44:20;0.50;99.90
46976;DHT22;32724;51.094;6.996;2023-02-15T03:46:50;0.60;99.90
46976;DHT22;32724;51.094;6.996;2023-02-15T03:49:20;0.60;99.90
46976;DHT22;32724;51.094;6.996;2023-02-15T03:51:47;0.50;99.90
46976;DHT22;32724;51.094;6.996;2023-02-15T03:54:15;0.50;99.90
46976;DHT22;32724;51.094;6.996;2023-02-15T03:57:04;0.50;99.90
46976;DHT22;32724;51.094;6.996;2023-02-15T03:59:50;0.40;99.90
46976;DHT22;32724;51.094;6.996;2023-02-15T04:02:38;0.40;99.90
46976;DHT22;32724;51.094;6.996;2023-02-15T04:05:05;0.40;99.90
46976;DHT22;32724;51.094;6.996;2023-02-15T04:07:30;0.40;99.90
46976;DHT22;32724;51.094;6.996;2023-02-15T04:09:56;0.30;99.90
46976;DHT22;32724;51.094;6.996;2023-02-15T04:12:40;0.30;99.90
46976;DHT22;32724;51.094;6.996;2023-02-15T04:15:05;0.20;99.90
46976;DHT22;32724;51.094;6.996;2023-02-15T04:17:50;0.10;99.90
46976;DHT22;32724;51.094;6.996;2023-02-15T04:20:15;0.10;99.90
46976;DHT22;32724;51.094;6.996;2023-02-15T04:22:59;0.10;99.90
46976;DHT22;32724;51.094;6.996;2023-02-15T04:25:44;0.10;99.90
46976;DHT22;32724;51.094;6.996;2023-02-15T04:28:09;0.00;99.90
46976;DHT22;32724;51.094;6.996;2023-02-15T04:30:35;0.00;99.90
46976;DHT22;32724;51.094;6.996;2023-02-15T04:33:00;0.10;99.90
46976;DHT22;32724;51.094;6.996;2023-02-15T04:35:26;0.00;99.90
46976;DHT22;32724;51.094;6.996;2023-02-15T04:37:51;-0.10;99.90
46976;DHT22;32724;51.094;6.996;2023-02-15T04:40:17;-0.10;99.90
46976;DHT22;32724;51.094;6.996;2023-02-15T04:42:42;-0.10;99.90
46976;DHT22;32724;51.094;6.996;2023-02-15T04:45:08;-0.20;99.90
46976;DHT22;32724;51.094;6.996;2023-02-15T04:47:33;-0.20;99.90
46976;DHT22;32724;51.094;6.996;2023-02-15T04:49:59;-0.20;99.90
46976;DHT22;32724;51.094;6.996;2023-02-15T04:52:24;-0.30;99.90
46976;DHT22;32724;51.094;6.996;2023-02-15T04:54:50;-0.30;99.90
46976;DHT22;32724;51.094;6.996;2023-02-15T04:57:15;-0.30;99.90
46976;DHT22;32724;51.094;6.996;2023-02-15T04:59:41;-0.30;99.90
46976;DHT22;32724;51.094;6.996;2023-02-15T05:02:06;-0.40;99.90
46976;DHT22;32724;51.094;6.996;2023-02-15T05:04:32;0.30;99.90
46976;DHT22;32724;51.094;6.996;2023-02-15T05:06:57;0.10;99.90
46976;DHT22;32724;51.094;6.996;2023-02-15T05:09:24;0.00;99.90
46976;DHT22;32724;51.094;6.996;2023-02-15T05:11:50;-0.10;99.90
46976;DHT22;32724;51.094;6.996;2023-02-15T05:14:15;-0.10;99.90
46976;DHT22;32724;51.094;6.996;2023-02-15T05:16:41;-0.10;99.90
46976;DHT22;32724;51.094;6.996;2023-02-15T05:19:06;-0.20;99.90
46976;DHT22;32724;51.094;6.996;2023-02-15T05:21:32;-0.20;99.90
46976;DHT22;32724;51.094;6.996;2023-02-15T05:23:57;-0.20;99.90
46976;DHT22;32724;51.094;6.996;2023-02-15T05:26:23;-0.20;99.90
46976;DHT22;32724;51.094;6.996;2023-02-15T05:29:08;-0.20;99.90
46976;DHT22;32724;51.094;6.996;2023-02-15T05:31:34;-0.30;99.90
46976;DHT22;32724;51.094;6.996;2023-02-15T05:33:59;-0.30;99.90
46976;DHT22;32724;51.094;6.996;2023-02-15T05:36:25;-0.40;99.90
46976;DHT22;32724;51.094;6.996;2023-02-15T05:38:50;-0.40;99.90
46976;DHT22;32724;51.094;6.996;2023-02-15T05:41:16;-0.50;99.90
46976;DHT22;32724;51.094;6.996;2023-02-15T05:43:41;-0.50;99.90
46976;DHT22;32724;51.094;6.996;2023-02-15T05:46:07;-0.40;99.90
46976;DHT22;32724;51.094;6.996;2023-02-15T05:48:32;-0.40;99.90
46976;DHT22;32724;51.094;6.996;2023-02-15T05:53:24;-0.40;99.90
46976;DHT22;32724;51.094;6.996;2023-02-15T05:55:49;-0.50;99.90
46976;DHT22;32724;51.094;6.996;2023-02-15T05:58:15;-0.60;99.90
46976;DHT22;32724;51.094;6.996;2023-02-15T06:00:40;-0.60;99.90
46976;DHT22;32724;51.094;6.996;2023-02-15T06:03:05;-0.60;99.90
46976;DHT22;32724;51.094;6.996;2023-02-15T06:05:31;-0.60;99.90
46976;DHT22;32724;51.094;6.996;2023-02-15T06:07:56;-0.70;99.90
46976;DHT22;32724;51.094;6.996;2023-02-15T06:10:22;-0.70;99.90
46976;DHT22;32724;51.094;6.996;2023-02-15T06:12:47;-0.70;99.90
46976;DHT22;32724;51.094;6.996;2023-02-15T06:15:13;-0.70;99.90
46976;DHT22;32724;51.094;6.996;2023-02-15T06:17:40;-0.70;99.90
46976;DHT22;32724;51.094;6.996;2023-02-15T06:20:06;-0.70;99.90
46976;DHT22;32724;51.094;6.996;2023-02-15T06:22:32;-0.70;99.90
46976;DHT22;32724;51.094;6.996;2023-02-15T06:24:57;-0.80;99.90
46976;DHT22;32724;51.094;6.996;2023-02-15T06:27:22;-0.70;99.90
46976;DHT22;32724;51.094;6.996;2023-02-15T06:29:48;-0.10;99.90
46976;DHT22;32724;51.094;6.996;2023-02-15T06:32:14;-0.20;99.90
46976;DHT22;32724;51.094;6.996;2023-02-15T06:34:39;-0.30;99.90
46976;DHT22;32724;51.094;6.996;2023-02-15T06:37:05;-0.30;99.90
46976;DHT22;32724;51.094;6.996;2023-02-15T06:39:30;-0.30;99.90
46976;DHT22;32724;51.094;6.996;2023-02-15T06:41:57;-0.30;99.90
46976;DHT22;32724;51.094;6.996;2023-02-15T06:44:22;-0.30;99.90
46976;DHT22;32724;51.094;6.996;2023-02-15T06:46:48;-0.20;99.90
46976;DHT22;32724;51.094;6.996;2023-02-15T06:49:13;-0.20;99.90
46976;DHT22;32724;51.094;6.996;2023-02-15T06:51:39;-0.30;99.90
46976;DHT22;32724;51.094;6.996;2023-02-15T06:54:04;-0.30;99.90
46976;DHT22;32724;51.094;6.996;2023-02-15T06:56:30;-0.20;99.90
46976;DHT22;32724;51.094;6.996;2023-02-15T06:58:55;-0.20;99.90
46976;DHT22;32724;51.094;6.996;2023-02-15T07:01:21;-0.20;99.90
46976;DHT22;32724;51.094;6.996;2023-02-15T07:03:46;-0.30;99.90
46976;DHT22;32724;51.094;6.996;2023-02-15T07:06:12;-0.30;99.90
46976;DHT22;32724;51.094;6.996;2023-02-15T07:08:38;-0.30;99.90
46976;DHT22;32724;51.094;6.996;2023-02-15T07:11:04;-0.30;99.90
46976;DHT22;32724;51.094;6.996;2023-02-15T07:13:48;-0.30;99.90
46976;DHT22;32724;51.094;6.996;2023-02-15T07:16:13;-0.30;99.90
46976;DHT22;32724;51.094;6.996;2023-02-15T07:18:39;-0.30;99.90
46976;DHT22;32724;51.094;6.996;2023-02-15T07:21:05;-0.30;99.90
46976;DHT22;32724;51.094;6.996;2023-02-15T07:23:34;-0.30;99.90
46976;DHT22;32724;51.094;6.996;2023-02-15T07:26:00;-0.10;99.90
46976;DHT22;32724;51.094;6.996;2023-02-15T07:28:25;-0.10;99.90
46976;DHT22;32724;51.094;6.996;2023-02-15T07:30:51;-0.10;99.90
46976;DHT22;32724;51.094;6.996;2023-02-15T07:33:16;0.00;99.90
46976;DHT22;32724;51.094;6.996;2023-02-15T07:35:48;0.00;99.90
46976;DHT22;32724;51.094;6.996;2023-02-15T07:38:14;0.00;99.90
46976;DHT22;32724;51.094;6.996;2023-02-15T07:40:40;0.10;99.90
46976;DHT22;32724;51.094;6.996;2023-02-15T07:43:05;0.20;99.90
46976;DHT22;32724;51.094;6.996;2023-02-15T07:45:31;0.20;99.90
46976;DHT22;32724;51.094;6.996;2023-02-15T07:47:56;0.30;99.90
46976;DHT22;32724;51.094;6.996;2023-02-15T07:50:22;0.40;99.90
46976;DHT22;32724;51.094;6.996;2023-02-15T07:52:47;0.50;99.90
46976;DHT22;32724;51.094;6.996;2023-02-15T07:55:13;0.60;99.90
46976;DHT22;32724;51.094;6.996;2023-02-15T07:57:46;0.70;99.90
46976;DHT22;32724;51.094;6.996;2023-02-15T08:00:12;0.80;99.90
46976;DHT22;32724;51.094;6.996;2023-02-15T08:02:38;0.90;99.90
46976;DHT22;32724;51.094;6.996;2023-02-15T08:05:04;1.00;99.90
46976;DHT22;32724;51.094;6.996;2023-02-15T08:07:30;1.50;99.90
46976;DHT22;32724;51.094;6.996;2023-02-15T08:09:55;1.50;99.90
46976;DHT22;32724;51.094;6.996;2023-02-15T08:12:20;1.60;99.90
46976;DHT22;32724;51.094;6.996;2023-02-15T08:14:46;1.80;99.90
46976;DHT22;32724;51.094;6.996;2023-02-15T08:17:11;1.90;99.90
46976;DHT22;32724;51.094;6.996;2023-02-15T08:19:37;2.10;99.90
46976;DHT22;32724;51.094;6.996;2023-02-15T08:22:06;2.20;99.90
46976;DHT22;32724;51.094;6.996;2023-02-15T08:24:33;2.30;99.90
46976;DHT22;32724;51.094;6.996;2023-02-15T08:26:58;2.50;99.90
46976;DHT22;32724;51.094;6.996;2023-02-15T08:29:25;2.70;99.90
46976;DHT22;32724;51.094;6.996;2023-02-15T08:31:55;2.80;99.90
46976;DHT22;32724;51.094;6.996;2023-02-15T08:34:23;2.70;99.90
46976;DHT22;32724;51.094;6.996;2023-02-15T08:36:49;2.70;99.90
46976;DHT22;32724;51.094;6.996;2023-02-15T08:39:14;2.60;99.90
46976;DHT22;32724;51.094;6.996;2023-02-15T08:41:44;2.60;99.90
46976;DHT22;32724;51.094;6.996;2023-02-15T08:44:10;2.80;99.90
46976;DHT22;32724;51.094;6.996;2023-02-15T08:46:37;2.90;99.90
46976;DHT22;32724;51.094;6.996;2023-02-15T08:49:02;3.10;99.90
46976;DHT22;32724;51.094;6.996;2023-02-15T08:51:32;3.30;99.90
46976;DHT22;32724;51.094;6.996;2023-02-15T08:53:59;3.50;99.90
46976;DHT22;32724;51.094;6.996;2023-02-15T08:56:26;3.80;99.90
46976;DHT22;32724;51.094;6.996;2023-02-15T08:58:54;4.10;99.90
46976;DHT22;32724;51.094;6.996;2023-02-15T09:01:22;4.20;99.90
46976;DHT22;32724;51.094;6.996;2023-02-15T09:03:49;4.40;99.90
46976;DHT22;32724;51.094;6.996;2023-02-15T09:06:15;4.60;99.90
46976;DHT22;32724;51.094;6.996;2023-02-15T09:08:41;4.70;99.90
46976;DHT22;32724;51.094;6.996;2023-02-15T09:11:07;4.90;99.90
46976;DHT22;32724;51.094;6.996;2023-02-15T09:13:33;5.00;99.90
46976;DHT22;32724;51.094;6.996;2023-02-15T09:16:03;5.10;99.90
46976;DHT22;32724;51.094;6.996;2023-02-15T09:18:29;5.20;99.90
46976;DHT22;32724;51.094;6.996;2023-02-15T09:20:55;5.30;99.90
46976;DHT22;32724;51.094;6.996;2023-02-15T09:23:20;5.30;99.90
46976;DHT22;32724;51.094;6.996;2023-02-15T09:25:46;5.50;99.90
46976;DHT22;32724;51.094;6.996;2023-02-15T09:28:11;5.50;99.90
46976;DHT22;32724;51.094;6.996;2023-02-15T09:30:37;5.60;99.90
46976;DHT22;32724;51.094;6.996;2023-02-15T09:33:02;5.70;99.90
46976;DHT22;32724;51.094;6.996;2023-02-15T09:35:28;5.80;99.90
46976;DHT22;32724;51.094;6.996;2023-02-15T09:37:53;6.10;99.90
46976;DHT22;32724;51.094;6.996;2023-02-15T09:40:19;6.30;99.90
46976;DHT22;32724;51.094;6.996;2023-02-15T09:45:20;6.70;99.90
46976;DHT22;32724;51.094;6.996;2023-02-15T10:03:19;7.20;99.90
46976;DHT22;32724;51.094;6.996;2023-02-15T10:13:36;7.10;99.90
46976;DHT22;32724;51.094;6.996;2023-02-15T10:21:02;7.50;99.90
46976;DHT22;32724;51.094;6.996;2023-02-15T10:23:40;7.60;99.90
46976;DHT22;32724;51.094;6.996;2023-02-15T10:28:46;8.00;99.90
46976;DHT22;32724;51.094;6.996;2023-02-15T10:31:22;7.70;99.90
46976;DHT22;32724;51.094;6.996;2023-02-15T10:33:48;7.70;99.90
46976;DHT22;32724;51.094;6.996;2023-02-15T10:56:36;8.70;99.90
46976;DHT22;32724;51.094;6.996;2023-02-15T10:59:25;8.80;99.90
46976;DHT22;32724;51.094;6.996;2023-02-15T11:02:02;8.90;99.90
46976;DHT22;32724;51.094;6.996;2023-02-15T11:06:59;9.00;99.90
46976;DHT22;32724;51.094;6.996;2023-02-15T11:09:30;9.10;99.90
46976;DHT22;32724;51.094;6.996;2023-02-15T11:11:59;9.10;99.90
46976;DHT22;32724;51.094;6.996;2023-02-15T11:17:11;9.30;99.90
46976;DHT22;32724;51.094;6.996;2023-02-15T11:19:39;9.50;99.90
46976;DHT22;32724;51.094;6.996;2023-02-15T11:22:06;9.60;99.90
46976;DHT22;32724;51.094;6.996;2023-02-15T11:24:33;9.60;99.90
46976;DHT22;32724;51.094;6.996;2023-02-15T11:29:41;9.80;99.90
46976;DHT22;32724;51.094;6.996;2023-02-15T11:35:10;9.60;99.90
46976;DHT22;32724;51.094;6.996;2023-02-15T11:37:44;9.60;99.90
46976;DHT22;32724;51.094;6.996;2023-02-15T11:40:19;9.70;99.90
46976;DHT22;32724;51.094;6.996;2023-02-15T11:42:47;9.80;99.90
46976;DHT22;32724;51.094;6.996;2023-02-15T11:47:53;10.00;99.90
46976;DHT22;32724;51.094;6.996;2023-02-15T11:50:22;10.20;99.90
46976;DHT22;32724;51.094;6.996;2023-02-15T11:52:49;10.30;99.90
46976;DHT22;32724;51.094;6.996;2023-02-15T11:55:18;10.50;99.90
46976;DHT22;32724;51.094;6.996;2023-02-15T11:57:45;10.50;99.90
46976;DHT22;32724;51.094;6.996;2023-02-15T12:00:23;10.60;99.90
46976;DHT22;32724;51.094;6.996;2023-02-15T12:02:52;10.50;99.90
46976;DHT22;32724;51.094;6.996;2023-02-15T12:05:18;10.60;99.90
46976;DHT22;32724;51.094;6.996;2023-02-15T12:07:46;10.70;99.90
46976;DHT22;32724;51.094;6.996;2023-02-15T12:12:39;10.90;99.90
46976;DHT22;32724;51.094;6.996;2023-02-15T12:15:06;11.10;99.90
46976;DHT22;32724;51.094;6.996;2023-02-15T12:17:38;11.20;99.90
46976;DHT22;32724;51.094;6.996;2023-02-15T12:20:06;11.30;99.90
46976;DHT22;32724;51.094;6.996;2023-02-15T12:22:33;11.30;99.90
46976;DHT22;32724;51.094;6.996;2023-02-15T12:25:02;11.20;99.90
46976;DHT22;32724;51.094;6.996;2023-02-15T12:27:29;11.30;99.90
46976;DHT22;32724;51.094;6.996;2023-02-15T12:30:06;11.20;99.90
46976;DHT22;32724;51.094;6.996;2023-02-15T12:32:46;10.90;99.90
46976;DHT22;32724;51.094;6.996;2023-02-15T12:35:13;10.80;99.90
46976;DHT22;32724;51.094;6.996;2023-02-15T12:37:39;10.80;99.90
46976;DHT22;32724;51.094;6.996;2023-02-15T12:40:21;11.00;99.90
46976;DHT22;32724;51.094;6.996;2023-02-15T12:42:47;11.20;99.90
46976;DHT22;32724;51.094;6.996;2023-02-15T12:45:26;11.40;99.90
46976;DHT22;32724;51.094;6.996;2023-02-15T12:50:36;11.70;99.90
46976;DHT22;32724;51.094;6.996;2023-02-15T12:55:49;11.90;99.90
46976;DHT22;32724;51.094;6.996;2023-02-15T12:58:16;11.90;99.90
46976;DHT22;32724;51.094;6.996;2023-02-15T13:00:43;11.90;99.90
46976;DHT22;32724;51.094;6.996;2023-02-15T13:03:15;11.90;99.90
46976;DHT22;32724;51.094;6.996;2023-02-15T13:05:42;12.00;99.90
46976;DHT22;32724;51.094;6.996;2023-02-15T13:08:28;12.00;99.90
46976;DHT22;32724;51.094;6.996;2023-02-15T13:10:56;12.00;99.90
46976;DHT22;32724;51.094;6.996;2023-02-15T13:13:31;12.00;99.90
46976;DHT22;32724;51.094;6.996;2023-02-15T13:15:59;12.00;99.90
46976;DHT22;32724;51.094;6.996;2023-02-15T13:18:30;12.10;99.90
46976;DHT22;32724;51.094;6.996;2023-02-15T13:20:57;12.10;99.90
46976;DHT22;32724;51.094;6.996;2023-02-15T13:23:28;12.10;99.90
46976;DHT22;32724;51.094;6.996;2023-02-15T13:25:54;12.10;99.90
46976;DHT22;32724;51.094;6.996;2023-02-15T13:28:22;12.10;99.90
46976;DHT22;32724;51.094;6.996;2023-02-15T13:30:49;12.20;99.90
46976;DHT22;32724;51.094;6.996;2023-02-15T13:36:00;12.30;99.90
46976;DHT22;32724;51.094;6.996;2023-02-15T13:38:56;12.30;99.90
46976;DHT22;32724;51.094;6.996;2023-02-15T13:41:33;12.40;99.90
46976;DHT22;32724;51.094;6.996;2023-02-15T13:44:04;12.40;99.90
46976;DHT22;32724;51.094;6.996;2023-02-15T13:46:40;12.50;99.90
46976;DHT22;32724;51.094;6.996;2023-02-15T13:49:17;12.50;99.90
46976;DHT22;32724;51.094;6.996;2023-02-15T13:51:49;12.60;99.90
46976;DHT22;32724;51.094;6.996;2023-02-15T13:59:37;12.70;99.90
46976;DHT22;32724;51.094;6.996;2023-02-15T14:12:49;12.70;99.90
46976;DHT22;32724;51.094;6.996;2023-02-15T14:29:57;12.80;99.90
46976;DHT22;32724;51.094;6.996;2023-02-15T14:34:51;12.80;99.90
46976;DHT22;32724;51.094;6.996;2023-02-15T14:37:19;12.80;99.90
46976;DHT22;32724;51.094;6.996;2023-02-15T14:39:56;12.70;99.90
46976;DHT22;32724;51.094;6.996;2023-02-15T14:42:53;12.20;99.90
46976;DHT22;32724;51.094;6.996;2023-02-15T14:45:21;12.00;99.90
46976;DHT22;32724;51.094;6.996;2023-02-15T14:47:51;12.00;99.90
46976;DHT22;32724;51.094;6.996;2023-02-15T14:55:40;12.20;99.90
46976;DHT22;32724;51.094;6.996;2023-02-15T14:58:09;12.30;99.90
46976;DHT22;32724;51.094;6.996;2023-02-15T15:00:39;12.40;99.90
46976;DHT22;32724;51.094;6.996;2023-02-15T15:03:11;12.40;99.90
46976;DHT22;32724;51.094;6.996;2023-02-15T15:05:49;12.40;99.90
46976;DHT22;32724;51.094;6.996;2023-02-15T15:08:26;12.40;99.90
46976;DHT22;32724;51.094;6.996;2023-02-15T15:10:53;12.40;99.90
46976;DHT22;32724;51.094;6.996;2023-02-15T15:15:55;12.40;99.90
46976;DHT22;32724;51.094;6.996;2023-02-15T15:21:06;12.30;99.90
46976;DHT22;32724;51.094;6.996;2023-02-15T15:23:33;12.30;99.90
46976;DHT22;32724;51.094;6.996;2023-02-15T15:29:06;12.20;99.90
46976;DHT22;32724;51.094;6.996;2023-02-15T15:42:13;11.90;99.90
46976;DHT22;32724;51.094;6.996;2023-02-15T15:44:53;11.80;99.90
46976;DHT22;32724;51.094;6.996;2023-02-15T15:49:49;11.70;99.90
46976;DHT22;32724;51.094;6.996;2023-02-15T15:52:15;11.70;99.90
46976;DHT22;32724;51.094;6.996;2023-02-15T15:54:42;11.60;99.90
46976;DHT22;32724;51.094;6.996;2023-02-15T15:57:15;11.50;99.90
46976;DHT22;32724;51.094;6.996;2023-02-15T15:59:45;11.50;99.90
46976;DHT22;32724;51.094;6.996;2023-02-15T16:02:14;11.40;99.90
46976;DHT22;32724;51.094;6.996;2023-02-15T16:04:41;11.40;99.90
46976;DHT22;32724;51.094;6.996;2023-02-15T16:09:41;11.20;99.90
46976;DHT22;32724;51.094;6.996;2023-02-15T16:12:16;11.10;99.90
46976;DHT22;32724;51.094;6.996;2023-02-15T16:14:44;11.00;99.90
46976;DHT22;32724;51.094;6.996;2023-02-15T16:17:17;10.90;99.90
46976;DHT22;32724;51.094;6.996;2023-02-15T16:19:44;10.80;99.90
46976;DHT22;32724;51.094;6.996;2023-02-15T16:22:15;10.70;99.90
46976;DHT22;32724;51.094;6.996;2023-02-15T16:29:56;10.40;99.90
46976;DHT22;32724;51.094;6.996;2023-02-15T16:32:25;10.40;99.90
46976;DHT22;32724;51.094;6.996;2023-02-15T16:34:59;10.30;99.90
46976;DHT22;32724;51.094;6.996;2023-02-15T16:37:25;10.20;99.90
46976;DHT22;32724;51.094;6.996;2023-02-15T16:39:53;10.10;99.90
46976;DHT22;32724;51.094;6.996;2023-02-15T16:42:19;10.00;99.90
46976;DHT22;32724;51.094;6.996;2023-02-15T16:44:45;9.70;99.90
46976;DHT22;32724;51.094;6.996;2023-02-15T16:47:29;9.40;99.90
46976;DHT22;32724;51.094;6.996;2023-02-15T16:49:57;9.30;99.90
46976;DHT22;32724;51.094;6.996;2023-02-15T16:52:25;9.30;99.90
46976;DHT22;32724;51.094;6.996;2023-02-15T16:54:53;9.10;99.90
46976;DHT22;32724;51.094;6.996;2023-02-15T16:57:20;8.90;99.90
46976;DHT22;32724;51.094;6.996;2023-02-15T16:59:47;8.70;99.90
46976;DHT22;32724;51.094;6.996;2023-02-15T17:02:15;8.50;99.90
46976;DHT22;32724;51.094;6.996;2023-02-15T17:04:41;8.30;99.90
46976;DHT22;32724;51.094;6.996;2023-02-15T17:09:40;7.90;99.90
46976;DHT22;32724;51.094;6.996;2023-02-15T17:12:28;8.00;99.90
46976;DHT22;32724;51.094;6.996;2023-02-15T17:14:59;8.30;99.90
46976;DHT22;32724;51.094;6.996;2023-02-15T17:17:24;8.50;99.90
46976;DHT22;32724;51.094;6.996;2023-02-15T17:19:50;8.60;99.90
46976;DHT22;32724;51.094;6.996;2023-02-15T17:22:18;8.60;99.90
46976;DHT22;32724;51.094;6.996;2023-02-15T17:24:45;8.60;99.90
46976;DHT22;32724;51.094;6.996;2023-02-15T17:27:29;8.60;99.90
46976;DHT22;32724;51.094;6.996;2023-02-15T17:29:57;8.50;99.90
46976;DHT22;32724;51.094;6.996;2023-02-15T17:32:25;8.40;99.90
46976;DHT22;32724;51.094;6.996;2023-02-15T17:34:57;8.30;99.90
46976;DHT22;32724;51.094;6.996;2023-02-15T17:39:50;8.10;99.90
46976;DHT22;32724;51.094;6.996;2023-02-15T17:42:16;8.00;99.90
46976;DHT22;32724;51.094;6.996;2023-02-15T17:44:41;7.90;99.90
46976;DHT22;32724;51.094;6.996;2023-02-15T17:47:08;7.90;99.90
46976;DHT22;32724;51.094;6.996;2023-02-15T17:49:34;7.80;99.90
46976;DHT22;32724;51.094;6.996;2023-02-15T17:52:02;7.80;99.90
46976;DHT22;32724;51.094;6.996;2023-02-15T17:54:28;7.80;99.90
46976;DHT22;32724;51.094;6.996;2023-02-15T17:57:12;7.70;99.90
46976;DHT22;32724;51.094;6.996;2023-02-15T17:59:38;7.60;99.90
46976;DHT22;32724;51.094;6.996;2023-02-15T18:02:22;7.60;99.90
46976;DHT22;32724;51.094;6.996;2023-02-15T18:05:15;7.50;99.90
46976;DHT22;32724;51.094;6.996;2023-02-15T18:07:59;7.40;99.90
46976;DHT22;32724;51.094;6.996;2023-02-15T18:10:44;7.30;99.90
46976;DHT22;32724;51.094;6.996;2023-02-15T18:13:28;7.30;99.90
46976;DHT22;32724;51.094;6.996;2023-02-15T18:15:54;7.20;99.90
46976;DHT22;32724;51.094;6.996;2023-02-15T18:18:20;7.20;99.90
46976;DHT22;32724;51.094;6.996;2023-02-15T18:20:46;7.40;99.90
46976;DHT22;32724;51.094;6.996;2023-02-15T18:23:15;7.30;99.90
46976;DHT22;32724;51.094;6.996;2023-02-15T18:25:40;7.30;99.90
46976;DHT22;32724;51.094;6.996;2023-02-15T18:28:07;7.30;99.90
46976;DHT22;32724;51.094;6.996;2023-02-15T18:30:33;7.30;99.90
46976;DHT22;32724;51.094;6.996;2023-02-15T18:32:59;7.20;99.90
46976;DHT22;32724;51.094;6.996;2023-02-15T18:35:25;7.20;99.90
46976;DHT22;32724;51.094;6.996;2023-02-15T18:37:52;7.20;99.90
46976;DHT22;32724;51.094;6.996;2023-02-15T18:40:19;7.20;99.90
46976;DHT22;32724;51.094;6.996;2023-02-15T18:42:45;7.20;99.90
46976;DHT22;32724;51.094;6.996;2023-02-15T18:45:21;7.20;99.90
46976;DHT22;32724;51.094;6.996;2023-02-15T18:47:49;7.10;99.90
46976;DHT22;32724;51.094;6.996;2023-02-15T18:50:15;7.10;99.90